Roan Mountain, TN (37687)

11:40 PM EST on January 23, 2017 (GMT -0500)
Ripshin Ridge | | Change Station
Active Advisory: Wind Advisory

Elev 3572 ft 36.17 °N, 82.15 °W | Updated 20 seconds ago

Overcast
Overcast
38.7 °F
Feels Like 35 °F
N
5.0
Wind Variable Wind from West
Gusts 5.0 mph

Today
High -- | Low -- °F
--% Chance of Precip.
Yesterday
High -- | Low -- °F
Precip. -- in
Pressure 29.58 in
Visibility 4.0 miles
Clouds Overcast 1500 ft
Windchill 35 °F
Dew Point 38 °F
Humidity 97%
Rainfall 1.15 in
Snow Depth Not available.
7:35 AM 5:45 PM
Waning Crescent, 14% visible
METAR K0A9 240415Z AUTO VRB06G12KT 4SM BR OVC015 08/07 A2958 RMK AO2
Pressure 29.58 in
Visibility 4.0 miles
Clouds Overcast 1500 ft
Windchill 35 °F
Dew Point 38 °F
Humidity 97%
Rainfall 1.15 in
Snow Depth Not available.
7:35 AM 5:45 PM
Waning Crescent, 14% visible
METAR K0A9 240415Z AUTO VRB06G12KT 4SM BR OVC015 08/07 A2958 RMK AO2

Get Your Daily Forecast Email!

Thanks for signing up!

Be on the lookout for a verification email in your inbox.

You'll start receiving the daily forecast at 8 AM.

×

10-Day Weather Forecast

Almanac

Astronomy

Jan. 23, 2017 Rise Set
Actual Time
Civil Twilight
Nautical Twilight
Astronomical Twilight
Moon
Length of Visible Light
Length of Day
Tomorrow will be .
, % of the Moon is Illuminated

Today's Extremes

State Highs State Lows

Community

WunderPhotos

Upload Photos

1,962,540 photos uploaded!

WunderBlog® & News

Nearby

Air Quality

  Air Quality AQ Index Pollutant
Not available.

Snow Depth

Station Depth Elevation

Earthquake Activity

City Distance Mag. Time & Date
Minimum magnitude displayed is 2.5.

Coastal Water Temperatures

Place Temperature

Stations

Nearby Weather Stations

Station Location Temp. Windchill Dew Point Humidity Wind Precip. Elev Updated Type
                   

Watches & Warnings

Wind Advisory
Issued: 8:46 PM EST Jan. 23, 2017 – National Weather Service

... Wind Advisory remains in effect until 11 am EST Tuesday...

* event... sustained winds of 15 to 30 mph... with gusts of 40 to
50 mph.

* Timing... tonight through Tuesday morning.

* Impacts... isolated downed trees and power lines will be
possible... especially with the recent rainfall
accumulations... and unsecured outdoor objects may be blown
over. Driving may be difficult for high profile vehicles.

Precautionary/preparedness actions...

A Wind Advisory means that winds of 26 to 39 mph and/or gusts of
40 to 57 mph are expected or occurring. Winds this strong can
make driving difficult... especially for high profile vehicles.
Use extra caution.